| time (UTC) | temp C | wind direction | speed KPH | gust KPH | rain 1hr cm | rain 24hr cm | rain mn cm | humidity % | barometer mb |
| 20260906044547 | 18 | 84 | 25.7 | 43.5 | 0.00 | 0.00 | 0.00 | 65 | 1024.1 |
| 20260906040114 | 19 | 133 | 30.6 | 46.7 | 0.00 | 0.00 | 0.00 | 64 | 1023.9 |
| 20260906031536 | 19 | 82 | 29.0 | 53.1 | 0.00 | 0.00 | 0.00 | 65 | 1023.5 |
| 20260906030034 | 19 | 73 | 30.6 | 51.5 | 0.00 | 0.00 | 0.00 | 65 | 1023.4 |
| 20260906021537 | 20 | 86 | 35.4 | 61.2 | 0.00 | 0.00 | 0.00 | 64 | 1022.9 |
| 20260906020039 | 20 | 125 | 25.7 | 49.9 | 0.00 | 0.00 | 0.00 | 63 | 1023.2 |
| 20260906013036 | 20 | 62 | 25.7 | 41.8 | 0.00 | 0.00 | 0.00 | 62 | 1023.2 |
| 20260906004536 | 20 | 76 | 25.7 | 49.9 | 0.00 | 0.00 | 0.00 | 61 | 1022.9 |
| 20260906003037 | 20 | 124 | 24.1 | 45.1 | 0.00 | 0.00 | 0.00 | 62 | 1023.3 |
| 20260905230039 | 20 | 104 | 22.5 | 40.2 | 0.00 | 0.00 | 0.00 | 61 | 1023.1 |
| 20260905221539 | 21 | 77 | 27.4 | 43.5 | 0.00 | 0.00 | 0.00 | 62 | 1023.1 |
| 20260905214546 | 21 | 100 | 24.1 | 40.2 | 0.00 | 0.00 | 0.00 | 62 | 1023.0 |
| 20260905194544 | 21 | 119 | 19.3 | 30.6 | 0.00 | 0.00 | 0.00 | 65 | 1022.5 |
| 20260905184553 | 21 | 88 | 19.3 | 30.6 | 0.00 | 0.00 | 0.00 | 64 | 1021.9 |
| 20260905181538 | 22 | 83 | 17.7 | 30.6 | 0.00 | 0.00 | 0.00 | 64 | 1021.5 |
| 20260905173056 | 22 | 104 | 20.9 | 32.2 | 0.00 | 0.00 | 0.00 | 63 | 1021.1 |
| 20260905154535 | 28 | 286 | 6.4 | 14.5 | 0.00 | 0.00 | 0.00 | 57 | 1020.4 |
| 20260905141537 | 29 | 192 | 8.0 | 20.9 | 0.00 | 0.00 | 0.00 | 57 | 1020.3 |
| 20260905133040 | 29 | 254 | 8.0 | 14.5 | 0.00 | 0.00 | 0.00 | 54 | 1020.3 |
| 20260905123045 | 30 | 216 | 12.9 | 22.5 | 0.00 | 0.00 | 0.00 | 48 | 1020.6 |
| 20260905114539 | 30 | 203 | 9.7 | 17.7 | 0.00 | 0.00 | 0.00 | 43 | 1020.5 |
| 20260905104540 | 28 | 240 | 3.2 | 11.3 | 0.00 | 0.00 | 0.00 | 44 | 1020.7 |
| 20260905090037 | 28 | 340 | 3.2 | 11.3 | 0.00 | 0.00 | 0.00 | 37 | 1020.8 |
| 20260905080037 | 25 | 84 | 6.4 | 12.9 | 0.00 | 0.00 | 0.00 | 42 | 1020.2 |
| 20260905064537 | 24 | 179 | 3.2 | 11.3 | 0.00 | 0.00 | 0.00 | 37 | 1019.6 |
| 20260905054602 | 23 | 184 | 3.2 | 8.0 | 0.00 | 0.00 | 0.00 | 37 | 1019.7 |